Time;durP1;ratioP1;P1;durP2;ratioP2;P2;SDS_P1;SDS_P2;PMS_P1;PMS_P2;Temp;Humidity;BMP_temperature;BMP_pressure;BME280_temperature;BME280_humidity;BME280_pressure;Samples;Min_cycle;Max_cycle;Signal;HPM_P1;HPM_P2
2023/03/11 00:00:57;;;;;;;2.33;1.42;;;9.10;99.90;;;;;;5097551;28;20050;-67
2023/03/11 00:03:32;;;;;;;;;;;9.10;99.90;;;;;;5125808;28;20389;-69
2023/03/11 00:06:05;;;;;;;1.15;1.05;;;9.10;99.90;;;;;;5102024;28;19925;-69
2023/03/11 00:08:36;;;;;;;2.22;1.10;;;9.10;99.90;;;;;;5129473;28;20053;-68
2023/03/11 00:11:08;;;;;;;2.28;1.08;;;9.10;99.90;;;;;;5113357;28;20046;-68
2023/03/11 00:13:40;;;;;;;1.60;1.10;;;9.10;99.90;;;;;;5127845;28;20042;-68
2023/03/11 00:16:11;;;;;;;0.85;0.75;;;9.10;99.90;;;;;;5145333;28;20224;-68
2023/03/11 00:18:43;;;;;;;2.17;0.93;;;9.10;99.90;;;;;;5128157;28;20057;-67
2023/03/11 00:21:17;;;;;;;0.95;0.90;;;9.10;99.90;;;;;;5110405;28;20041;-67
2023/03/11 00:23:49;;;;;;;2.40;0.98;;;9.10;99.90;;;;;;5122932;28;20050;-68
2023/03/11 00:26:20;;;;;;;1.35;0.85;;;9.00;99.90;;;;;;5105313;28;20058;-68
2023/03/11 00:28:57;;;;;;;2.67;1.20;;;9.00;99.90;;;;;;5100521;28;20345;-68
2023/03/11 00:31:30;;;;;;;1.25;1.13;;;9.00;99.90;;;;;;5080821;28;20069;-68
2023/03/11 00:34:03;;;;;;;1.73;1.10;;;8.90;99.90;;;;;;5099797;28;20347;-69
2023/03/11 00:36:39;;;;;;;3.90;0.98;;;8.90;99.90;;;;;;5115762;28;20039;-68
2023/03/11 00:39:15;;;;;;;1.33;0.90;;;9.00;99.90;;;;;;5107731;28;20046;-66
2023/03/11 00:41:49;;;;;;;0.85;0.60;;;8.80;99.90;;;;;;5100821;28;20061;-70
2023/03/11 00:44:21;;;;;;;4.25;1.63;;;8.10;99.90;;;;;;5116541;28;20095;-70
2023/03/11 00:46:55;;;;;;;4.80;1.35;;;7.50;99.90;;;;;;5098213;28;20242;-70
2023/03/11 00:49:27;;;;;;;1.75;0.85;;;7.10;53.60;;;;;;5133598;28;20211;-70
2023/03/11 00:51:58;;;;;;;1.63;1.25;;;6.90;1.00;;;;;;5116657;28;20045;-71
2023/03/11 00:54:32;;;;;;;2.13;1.13;;;6.90;99.90;;;;;;5142889;28;20065;-70
2023/03/11 00:57:04;;;;;;;1.13;1.00;;;6.80;99.90;;;;;;5089430;29;20057;-70
2023/03/11 00:59:40;;;;;;;1.63;0.90;;;7.00;1.00;;;;;;5097107;29;20043;-72
2023/03/11 01:04:47;;;;;;;1.88;1.27;;;7.10;1.00;;;;;;5121281;28;20050;-72
2023/03/11 01:07:20;;;;;;;3.50;0.73;;;7.20;1.00;;;;;;5133092;28;20041;-70
2023/03/11 01:09:54;;;;;;;1.92;0.70;;;7.30;1.00;;;;;;5117744;28;20050;-72
2023/03/11 01:12:27;;;;;;;1.20;1.13;;;7.40;12.50;;;;;;5100167;28;20061;-71
2023/03/11 01:15:01;;;;;;;0.98;0.88;;;7.40;2.00;;;;;;5085377;28;20053;-73
2023/03/11 01:17:36;;;;;;;0.90;0.90;;;7.30;17.90;;;;;;5098020;28;20045;-71
2023/03/11 01:20:09;;;;;;;0.90;0.90;;;7.30;29.40;;;;;;5116176;28;20061;-74
2023/03/11 01:22:43;;;;;;;3.03;0.70;;;7.20;60.20;;;;;;5115610;28;20059;-71
2023/03/11 01:25:17;;;;;;;1.30;1.23;;;7.20;37.50;;;;;;5124241;28;20039;-71
2023/03/11 01:27:49;;;;;;;1.13;0.75;;;7.10;1.00;;;;;;5097396;28;20042;-74
2023/03/11 01:30:26;;;;;;;1.83;0.73;;;7.10;1.00;;;;;;5088804;28;20057;-71
2023/03/11 01:32:59;;;;;;;6.28;1.10;;;7.10;18.70;;;;;;5117047;28;20047;-70
2023/03/11 01:35:34;;;;;;;1.75;0.90;;;7.20;17.00;;;;;;5085146;28;20050;-73
2023/03/11 01:38:06;;;;;;;1.00;1.00;;;7.20;30.80;;;;;;5126764;28;20051;-70
2023/03/11 01:40:40;;;;;;;2.78;1.35;;;7.30;19.00;;;;;;5081773;29;20066;-71
2023/03/11 01:43:45;;;;;;;;;;;7.30;99.90;;;;;;5097679;29;20054;-69
2023/03/11 01:46:25;;;;;;;0.82;0.82;;;7.30;99.90;;;;;;5126521;28;19926;-72
2023/03/11 01:49:02;;;;;;;1.10;0.90;;;7.30;99.90;;;;;;5097557;29;20047;-68
2023/03/11 01:51:45;;;;;;;0.88;0.88;;;7.30;99.90;;;;;;5107090;28;20034;-68
2023/03/11 01:54:41;;;;;;;1.00;1.00;;;7.30;99.90;;;;;;5102277;28;20053;-72
2023/03/11 01:57:19;;;;;;;1.27;1.00;;;7.20;99.90;;;;;;5096682;29;20043;-71
2023/03/11 02:00:04;;;;;;;2.05;0.80;;;7.10;99.90;;;;;;5115180;29;20057;-71
2023/03/11 02:02:44;;;;;;;1.08;1.00;;;7.00;99.90;;;;;;5125673;28;20041;-68
2023/03/11 02:05:18;;;;;;;2.10;1.20;;;7.00;99.90;;;;;;5114295;28;20066;-69
2023/03/11 02:07:54;;;;;;;1.90;1.00;;;7.00;99.90;;;;;;5131939;28;20280;-69
2023/03/11 02:10:29;;;;;;;0.65;0.65;;;7.00;99.90;;;;;;5117016;28;20039;-70
2023/03/11 02:13:03;;;;;;;1.05;1.02;;;6.90;99.90;;;;;;5084787;28;20042;-67
2023/03/11 02:15:37;;;;;;;0.80;0.80;;;6.80;99.90;;;;;;5129560;28;20049;-70
2023/03/11 02:18:19;;;;;;;1.02;0.90;;;6.70;99.90;;;;;;5083869;28;20046;-71
2023/03/11 02:21:04;;;;;;;1.02;0.93;;;6.60;99.90;;;;;;5131379;28;20051;-67
2023/03/11 02:23:51;;;;;;;1.27;1.05;;;6.40;99.90;;;;;;5094712;29;20043;-69
2023/03/11 02:26:38;;;;;;;0.60;0.60;;;6.40;99.90;;;;;;5087579;29;20094;-69
2023/03/11 02:29:11;;;;;;;0.75;0.75;;;6.30;99.90;;;;;;5079659;29;20043;-68
2023/03/11 02:31:45;;;;;;;3.10;1.15;;;6.20;99.90;;;;;;5103707;28;20046;-70
2023/03/11 02:34:28;;;;;;;0.90;0.90;;;6.10;99.90;;;;;;5099785;28;20268;-69
2023/03/11 02:37:00;;;;;;;1.20;1.10;;;6.10;99.90;;;;;;5098767;28;20404;-69
2023/03/11 02:39:44;;;;;;;1.00;0.90;;;6.00;99.90;;;;;;5114165;28;20034;-69
2023/03/11 02:42:23;;;;;;;0.90;0.82;;;6.00;99.90;;;;;;5111780;28;20051;-69
2023/03/11 02:45:03;;;;;;;0.90;0.80;;;5.90;99.90;;;;;;5114062;28;20027;-70
2023/03/11 02:47:41;;;;;;;1.38;0.90;;;5.80;99.90;;;;;;5114396;28;20045;-69
2023/03/11 02:50:33;;;;;;;1.25;0.70;;;5.80;99.90;;;;;;5083563;28;20353;-68
2023/03/11 02:53:07;;;;;;;1.85;1.10;;;5.70;99.90;;;;;;5073251;29;20675;-69
2023/03/11 02:55:39;;;;;;;0.70;0.70;;;5.60;99.90;;;;;;5103945;28;20031;-70
2023/03/11 02:58:13;;;;;;;0.70;0.70;;;5.50;99.90;;;;;;5131963;28;20559;-68
2023/03/11 03:00:44;;;;;;;2.05;1.38;;;5.40;99.90;;;;;;5129496;28;20042;-68
2023/03/11 03:03:18;;;;;;;0.80;0.80;;;5.40;99.90;;;;;;5114069;28;20045;-66
2023/03/11 03:05:53;;;;;;;0.88;0.88;;;5.30;99.90;;;;;;5118842;28;20130;-68
2023/03/11 03:08:28;;;;;;;;;;;5.30;99.90;;;;;;5117982;28;20039;-70
2023/03/11 03:11:05;;;;;;;0.75;0.75;;;5.20;99.90;;;;;;5113617;28;19918;-66
2023/03/11 03:13:38;;;;;;;1.08;1.00;;;5.10;99.90;;;;;;5098754;28;20046;-65
2023/03/11 03:16:10;;;;;;;3.55;0.90;;;5.20;99.90;;;;;;5111358;28;20050;-69
2023/03/11 03:18:42;;;;;;;0.70;0.70;;;5.10;99.90;;;;;;5104025;29;20045;-65
2023/03/11 03:21:21;;;;;;;0.80;0.80;;;5.10;99.90;;;;;;5110198;28;20055;-68
2023/03/11 03:23:55;;;;;;;1.88;1.00;;;5.10;99.90;;;;;;5088410;29;20208;-67
2023/03/11 03:26:27;;;;;;;0.90;0.90;;;5.10;99.90;;;;;;5101955;28;20046;-67
2023/03/11 03:28:58;;;;;;;0.90;0.90;;;5.20;99.90;;;;;;5110187;29;20043;-66
2023/03/11 03:31:32;;;;;;;1.38;0.70;;;5.20;99.90;;;;;;5109590;29;20454;-67
2023/03/11 03:34:07;;;;;;;0.65;0.65;;;5.20;99.90;;;;;;5145668;28;20053;-71
2023/03/11 03:36:39;;;;;;;1.00;0.88;;;5.10;99.90;;;;;;5081779;28;20054;-68
2023/03/11 03:39:13;;;;;;;0.80;0.80;;;5.10;99.90;;;;;;5114571;28;20035;-67
2023/03/11 03:41:45;;;;;;;0.80;0.80;;;5.10;99.90;;;;;;5066553;28;20057;-68
2023/03/11 03:44:17;;;;;;;0.70;0.70;;;5.00;99.90;;;;;;5113942;28;20062;-69
2023/03/11 03:46:53;;;;;;;0.70;0.70;;;5.00;99.90;;;;;;5111009;28;20650;-69
2023/03/11 03:49:25;;;;;;;0.70;0.70;;;5.00;99.90;;;;;;5098653;28;20050;-69
2023/03/11 03:51:57;;;;;;;1.17;1.08;;;4.90;99.90;;;;;;5118772;28;20038;-68
2023/03/11 03:54:28;;;;;;;1.35;0.80;;;4.80;99.90;;;;;;5121875;28;20248;-67
2023/03/11 03:57:01;;;;;;;0.95;0.82;;;4.70;99.90;;;;;;5109852;28;20047;-69
2023/03/11 03:59:33;;;;;;;0.70;0.70;;;4.70;99.90;;;;;;5082870;28;20331;-66
2023/03/11 04:02:07;;;;;;;0.88;0.88;;;4.60;99.90;;;;;;5112869;28;20057;-70
2023/03/11 04:04:42;;;;;;;0.63;0.60;;;4.50;99.90;;;;;;5076362;28;20062;-69
2023/03/11 04:07:17;;;;;;;0.68;0.68;;;4.40;99.90;;;;;;5131990;28;20334;-69
2023/03/11 04:09:54;;;;;;;0.80;0.80;;;4.40;99.90;;;;;;5130633;28;20035;-69
2023/03/11 04:12:26;;;;;;;0.70;0.70;;;4.30;99.90;;;;;;5089157;29;20050;-66
2023/03/11 04:14:57;;;;;;;0.60;0.60;;;4.20;99.90;;;;;;5106282;28;20049;-70
2023/03/11 04:17:29;;;;;;;0.85;0.82;;;4.20;99.90;;;;;;5112700;28;20400;-66
2023/03/11 04:20:01;;;;;;;0.60;0.60;;;4.20;99.90;;;;;;5099126;28;20035;-67
2023/03/11 04:22:33;;;;;;;1.95;0.70;;;4.20;99.90;;;;;;5098665;28;20035;-66
2023/03/11 04:25:08;;;;;;;0.70;0.70;;;4.20;99.90;;;;;;5080399;28;20046;-67
2023/03/11 04:27:44;;;;;;;1.17;0.85;;;4.10;99.90;;;;;;5116453;28;20053;-67
2023/03/11 04:30:16;;;;;;;0.77;0.77;;;4.10;99.90;;;;;;5101534;28;20339;-67
2023/03/11 04:32:53;;;;;;;0.77;0.77;;;4.00;99.90;;;;;;5110430;28;20038;-68
2023/03/11 04:35:25;;;;;;;0.80;0.80;;;4.00;99.90;;;;;;5122782;28;20046;-69
2023/03/11 04:37:56;;;;;;;0.60;0.60;;;3.90;99.90;;;;;;5138168;28;20254;-68
2023/03/11 04:40:28;;;;;;;0.60;0.60;;;3.90;99.90;;;;;;5122873;28;20418;-65
2023/03/11 04:43:04;;;;;;;0.80;0.80;;;3.90;99.90;;;;;;5122089;28;20042;-69
2023/03/11 04:45:45;;;;;;;0.88;0.88;;;3.90;99.90;;;;;;5103404;28;20051;-67
2023/03/11 04:48:20;;;;;;;1.00;0.90;;;3.90;99.90;;;;;;5135259;28;20061;-67
2023/03/11 04:50:55;;;;;;;0.63;0.55;;;3.80;99.90;;;;;;5086697;28;20422;-69
2023/03/11 04:53:29;;;;;;;0.70;0.70;;;3.70;99.90;;;;;;5118743;28;20498;-69
2023/03/11 04:56:05;;;;;;;0.80;0.80;;;3.70;99.90;;;;;;5103198;28;20042;-67
2023/03/11 04:58:36;;;;;;;0.60;0.60;;;3.60;99.90;;;;;;5099059;28;20035;-66
2023/03/11 05:01:12;;;;;;;0.50;0.50;;;3.70;99.90;;;;;;5112982;28;20307;-67
2023/03/11 05:03:43;;;;;;;0.70;0.70;;;3.70;99.90;;;;;;5101444;28;20212;-64
2023/03/11 05:06:15;;;;;;;0.70;0.57;;;3.70;99.90;;;;;;5160441;28;20167;-68
2023/03/11 05:08:47;;;;;;;0.60;0.60;;;3.70;99.90;;;;;;5122266;28;20038;-70
2023/03/11 05:11:21;;;;;;;0.57;0.57;;;3.60;99.90;;;;;;5106800;28;20046;-68
2023/03/11 05:13:52;;;;;;;0.70;0.70;;;3.70;99.90;;;;;;5106099;28;20034;-67
2023/03/11 05:16:23;;;;;;;0.73;0.73;;;3.60;99.90;;;;;;5136028;28;20040;-67
2023/03/11 05:18:56;;;;;;;0.60;0.60;;;3.60;99.90;;;;;;5137497;28;20679;-67
2023/03/11 05:21:34;;;;;;;0.80;0.80;;;3.60;99.90;;;;;;5105097;28;20047;-68
2023/03/11 05:24:14;;;;;;;1.25;0.60;;;3.50;99.90;;;;;;5133697;28;20039;-65
2023/03/11 05:26:45;;;;;;;0.82;0.82;;;3.60;99.90;;;;;;5093252;29;20561;-66
2023/03/11 05:29:17;;;;;;;0.52;0.52;;;3.60;99.90;;;;;;5097688;29;20053;-65
2023/03/11 05:31:53;;;;;;;0.50;0.50;;;3.70;99.90;;;;;;5115183;28;20051;-67
2023/03/11 05:34:25;;;;;;;1.17;0.85;;;3.70;99.90;;;;;;5120770;28;20064;-65
2023/03/11 05:37:01;;;;;;;1.20;0.57;;;3.70;99.90;;;;;;5136787;28;20065;-68
2023/03/11 05:39:38;;;;;;;0.50;0.50;;;3.70;99.90;;;;;;5121530;28;20045;-68
2023/03/11 05:42:13;;;;;;;0.50;0.50;;;3.80;99.90;;;;;;5102457;28;20049;-67
2023/03/11 05:44:48;;;;;;;0.70;0.60;;;3.80;99.90;;;;;;5099353;28;20037;-67
2023/03/11 05:47:19;;;;;;;;;;;3.80;99.90;;;;;;5108694;28;20055;-69
2023/03/11 05:49:53;;;;;;;0.40;0.40;;;3.80;99.90;;;;;;5121125;28;19929;-69
2023/03/11 05:52:29;;;;;;;1.50;1.15;;;3.90;99.90;;;;;;5128085;28;20043;-67
2023/03/11 05:55:00;;;;;;;0.90;0.80;;;3.90;99.90;;;;;;5085865;28;20043;-68
2023/03/11 05:57:32;;;;;;;0.70;0.70;;;3.90;99.90;;;;;;5086964;28;20051;-67
2023/03/11 06:00:10;;;;;;;0.70;0.70;;;3.90;99.90;;;;;;5096771;28;20057;-69
2023/03/11 06:02:42;;;;;;;0.60;0.60;;;4.00;99.90;;;;;;5082570;28;20047;-67
2023/03/11 06:05:15;;;;;;;0.63;0.63;;;4.00;99.90;;;;;;5093757;28;20037;-67
2023/03/11 06:07:49;;;;;;;0.77;0.77;;;4.00;99.90;;;;;;5103029;28;20046;-68
2023/03/11 06:10:23;;;;;;;;;;;4.10;99.90;;;;;;5106958;28;20026;-69
2023/03/11 06:12:56;;;;;;;0.80;0.80;;;4.10;99.90;;;;;;5123266;28;19918;-69
2023/03/11 06:15:29;;;;;;;1.10;1.10;;;4.10;99.90;;;;;;5120019;28;20804;-66
2023/03/11 06:18:04;;;;;;;0.53;0.53;;;4.20;99.90;;;;;;5101557;28;20144;-68
2023/03/11 06:20:36;;;;;;;;;;;4.30;99.90;;;;;;5121082;28;20652;-67
2023/03/11 06:23:08;;;;;;;0.80;0.80;;;4.30;99.90;;;;;;5127379;28;19979;-69
2023/03/11 06:25:45;;;;;;;1.05;0.95;;;4.40;99.90;;;;;;5105294;28;20062;-67
2023/03/11 06:28:17;;;;;;;0.90;0.90;;;4.40;99.90;;;;;;5122668;28;20050;-67
2023/03/11 06:30:52;;;;;;;0.68;0.68;;;4.50;99.90;;;;;;5106504;28;20041;-68
2023/03/11 06:33:24;;;;;;;0.60;0.60;;;4.50;99.90;;;;;;5124181;28;20054;-68
2023/03/11 06:36:00;;;;;;;4.90;1.15;;;4.60;99.90;;;;;;5100263;28;20057;-68
2023/03/11 06:38:36;;;;;;;0.70;0.60;;;4.50;99.90;;;;;;5145715;28;20557;-66
2023/03/11 06:41:11;;;;;;;1.33;1.20;;;4.40;99.90;;;;;;5136004;28;20057;-68
2023/03/11 06:43:42;;;;;;;0.75;0.75;;;4.50;99.90;;;;;;5106769;28;20050;-68
2023/03/11 06:46:22;;;;;;;0.70;0.70;;;4.50;99.90;;;;;;5098938;28;20250;-65
2023/03/11 06:48:55;;;;;;;1.08;1.08;;;4.60;99.90;;;;;;5086733;28;20035;-69
2023/03/11 06:51:32;;;;;;;0.80;0.80;;;4.50;99.90;;;;;;5116854;28;20051;-65
2023/03/11 06:54:05;;;;;;;1.13;0.70;;;4.60;99.90;;;;;;5088306;28;20058;-69
2023/03/11 06:56:54;;;;;;;1.23;1.00;;;4.60;99.90;;;;;;5126532;28;20018;-65
2023/03/11 06:59:27;;;;;;;0.60;0.60;;;4.70;99.90;;;;;;5110221;28;20042;-67
2023/03/11 07:01:59;;;;;;;0.93;0.77;;;4.60;99.90;;;;;;5117983;28;20046;-68
2023/03/11 07:04:32;;;;;;;0.90;0.90;;;4.70;99.90;;;;;;5089892;28;20059;-69
2023/03/11 07:07:09;;;;;;;1.03;1.00;;;4.80;99.90;;;;;;5095531;28;20047;-66
2023/03/11 07:09:43;;;;;;;0.57;0.57;;;4.70;99.90;;;;;;5081024;28;20057;-69
2023/03/11 07:12:16;;;;;;;0.98;0.98;;;4.80;99.90;;;;;;5126120;28;20054;-68
2023/03/11 07:14:49;;;;;;;1.23;0.80;;;4.60;99.90;;;;;;5093051;28;20031;-67
2023/03/11 07:17:23;;;;;;;1.00;0.90;;;4.60;99.90;;;;;;5109373;28;20050;-70
2023/03/11 07:19:54;;;;;;;1.27;1.23;;;4.60;99.90;;;;;;5095514;29;20378;-69
2023/03/11 07:22:26;;;;;;;0.80;0.80;;;4.70;99.90;;;;;;5091911;28;20134;-68
2023/03/11 07:25:03;;;;;;;2.25;1.23;;;4.80;99.90;;;;;;5093996;28;20050;-69
2023/03/11 07:27:36;;;;;;;0.93;0.90;;;4.80;99.90;;;;;;5098760;28;20057;-67
2023/03/11 07:30:08;;;;;;;1.17;1.00;;;4.90;99.90;;;;;;5113371;28;20350;-69
2023/03/11 07:32:42;;;;;;;1.30;0.70;;;4.90;99.90;;;;;;5099089;28;20049;-65
2023/03/11 07:35:14;;;;;;;1.08;0.90;;;4.90;99.90;;;;;;5097821;29;20239;-69
2023/03/11 07:37:45;;;;;;;0.93;0.93;;;4.80;99.90;;;;;;5131272;28;20042;-68
2023/03/11 07:40:17;;;;;;;0.70;0.70;;;5.00;99.90;;;;;;5098318;28;20051;-66
2023/03/11 07:42:51;;;;;;;1.05;0.95;;;5.10;99.90;;;;;;5081639;28;20042;-67
2023/03/11 07:45:24;;;;;;;1.02;0.88;;;5.00;99.90;;;;;;5105677;28;20057;-69
2023/03/11 07:48:01;;;;;;;0.70;0.70;;;5.00;99.90;;;;;;5082783;28;20347;-66
2023/03/11 07:50:32;;;;;;;1.00;1.00;;;5.00;99.90;;;;;;5096291;28;20034;-67
2023/03/11 07:53:06;;;;;;;1.15;1.05;;;5.00;99.90;;;;;;5094053;28;20046;-69
2023/03/11 07:55:40;;;;;;;0.95;0.90;;;5.20;99.90;;;;;;5082355;28;20043;-67
2023/03/11 07:58:12;;;;;;;1.40;1.23;;;5.20;99.90;;;;;;5115755;28;20041;-68
2023/03/11 08:00:45;;;;;;;0.80;0.80;;;5.20;99.90;;;;;;5131152;28;20054;-64
2023/03/11 08:03:23;;;;;;;1.23;1.13;;;5.50;99.90;;;;;;5102942;28;20050;-67
2023/03/11 08:05:54;;;;;;;0.93;0.93;;;5.40;99.90;;;;;;5107555;28;20096;-66
2023/03/11 08:08:26;;;;;;;0.70;0.70;;;5.30;99.90;;;;;;5105298;28;20042;-68
2023/03/11 08:11:11;;;;;;;1.02;0.80;;;5.40;99.90;;;;;;5117377;28;20039;-68
2023/03/11 08:13:44;;;;;;;0.93;0.63;;;5.30;99.90;;;;;;5119826;28;20167;-67
2023/03/11 08:16:20;;;;;;;0.70;0.70;;;5.40;99.90;;;;;;5118029;28;20053;-69
2023/03/11 08:18:53;;;;;;;1.02;0.70;;;5.40;99.90;;;;;;5103451;28;20047;-69
2023/03/11 08:21:33;;;;;;;2.00;0.93;;;5.60;99.90;;;;;;5103134;28;20252;-70
2023/03/11 08:24:14;;;;;;;0.80;0.75;;;5.60;99.90;;;;;;5103943;28;20054;-70
2023/03/11 08:26:45;;;;;;;1.02;0.90;;;5.80;99.90;;;;;;5086702;28;20046;-67
2023/03/11 08:29:20;;;;;;;0.80;0.80;;;5.70;99.90;;;;;;5102217;28;20053;-70
2023/03/11 08:31:51;;;;;;;;;;;5.70;99.90;;;;;;5119711;28;20045;-68
2023/03/11 08:34:22;;;;;;;0.70;0.70;;;5.90;99.90;;;;;;5154158;28;19942;-69
2023/03/11 08:36:54;;;;;;;0.70;0.70;;;5.90;99.90;;;;;;5123997;28;20105;-67
2023/03/11 08:39:30;;;;;;;0.93;0.88;;;5.90;99.90;;;;;;5123200;28;20072;-70
2023/03/11 08:42:02;;;;;;;1.00;1.00;;;5.90;99.90;;;;;;5139167;28;20076;-69
2023/03/11 08:44:35;;;;;;;2.05;0.77;;;5.90;99.90;;;;;;5138464;28;20052;-71
2023/03/11 08:47:07;;;;;;;0.60;0.60;;;6.10;99.90;;;;;;5087735;28;20054;-66
2023/03/11 08:49:42;;;;;;;0.90;0.88;;;6.10;99.90;;;;;;5122262;28;20041;-66
2023/03/11 08:52:18;;;;;;;1.30;1.20;;;6.10;99.90;;;;;;5109194;28;20042;-70
2023/03/11 08:54:54;;;;;;;0.93;0.93;;;6.20;99.90;;;;;;5117489;28;20385;-69
2023/03/11 08:57:30;;;;;;;0.80;0.80;;;5.90;99.90;;;;;;5101625;28;20051;-67
2023/03/11 09:00:06;;;;;;;1.17;1.10;;;6.20;99.90;;;;;;5101346;29;20051;-69
2023/03/11 09:02:38;;;;;;;1.30;0.70;;;5.90;99.90;;;;;;5117926;28;20042;-67
2023/03/11 09:05:12;;;;;;;0.75;0.75;;;6.10;99.90;;;;;;5106458;28;20047;-68
2023/03/11 09:07:49;;;;;;;1.35;1.23;;;6.40;99.90;;;;;;5093413;28;20381;-69
2023/03/11 09:10:21;;;;;;;2.75;1.10;;;6.30;99.90;;;;;;5102733;28;20031;-70
2023/03/11 09:12:52;;;;;;;0.65;0.65;;;6.20;99.90;;;;;;5085843;28;20047;-67
2023/03/11 09:15:23;;;;;;;0.80;0.80;;;6.10;99.90;;;;;;5083220;28;20049;-68
2023/03/11 09:17:56;;;;;;;0.70;0.70;;;6.00;99.90;;;;;;5102447;28;20382;-67
2023/03/11 09:20:29;;;;;;;1.23;1.00;;;6.30;99.90;;;;;;5100264;28;20494;-67
2023/03/11 09:23:00;;;;;;;1.38;1.27;;;6.40;99.90;;;;;;5115281;28;20046;-66
2023/03/11 09:25:35;;;;;;;0.80;0.80;;;6.20;99.90;;;;;;5113898;28;20038;-68
2023/03/11 09:28:07;;;;;;;0.63;0.63;;;6.30;99.90;;;;;;5100520;28;20068;-69
2023/03/11 09:30:40;;;;;;;1.38;1.20;;;6.30;99.90;;;;;;5128973;28;20059;-68
2023/03/11 09:33:14;;;;;;;1.30;1.07;;;6.50;99.90;;;;;;5146607;28;20038;-69
2023/03/11 09:35:45;;;;;;;1.23;1.13;;;6.60;99.90;;;;;;5120940;28;20294;-68
2023/03/11 09:38:19;;;;;;;0.90;0.90;;;6.60;99.90;;;;;;5137908;28;20034;-68
2023/03/11 09:41:17;;;;;;;0.82;0.80;;;7.20;99.90;;;;;;5155337;28;20044;-66
2023/03/11 09:44:09;;;;;;;0.93;0.75;;;7.30;99.90;;;;;;5136553;28;20038;-67
2023/03/11 09:47:27;;;;;;;0.98;0.98;;;6.80;99.90;;;;;;5138167;28;20033;-67
2023/03/11 09:50:39;;;;;;;1.20;1.10;;;7.40;99.90;;;;;;5122944;28;20062;-69
2023/03/11 09:53:22;;;;;;;0.73;0.73;;;7.20;99.90;;;;;;5097261;28;20339;-66
2023/03/11 09:55:59;;;;;;;0.88;0.82;;;7.00;99.90;;;;;;5114772;28;20035;-69
2023/03/11 09:58:51;;;;;;;1.00;1.00;;;6.70;99.90;;;;;;5112680;28;20365;-69
2023/03/11 10:01:47;;;;;;;0.80;0.80;;;6.60;99.90;;;;;;5110880;28;20039;-69
2023/03/11 10:04:32;;;;;;;0.65;0.57;;;6.50;99.90;;;;;;5089236;28;20046;-70
2023/03/11 10:07:20;;;;;;;1.80;0.90;;;6.30;99.90;;;;;;5082534;28;20051;-70
2023/03/11 10:09:59;;;;;;;1.30;0.95;;;6.20;99.90;;;;;;5113887;28;20037;-70
2023/03/11 10:13:04;;;;;;;0.73;0.73;;;6.10;99.90;;;;;;5082706;28;20051;-69
2023/03/11 10:16:11;;;;;;;0.75;0.75;;;6.20;99.90;;;;;;5112726;28;20043;-66
2023/03/11 10:18:55;;;;;;;1.05;0.80;;;6.10;99.90;;;;;;5103997;28;20038;-67
2023/03/11 10:21:56;;;;;;;0.70;0.70;;;5.80;99.90;;;;;;5130270;28;20043;-70
2023/03/11 10:24:40;;;;;;;0.70;0.70;;;5.70;99.90;;;;;;5129003;28;20057;-69
2023/03/11 10:27:29;;;;;;;0.80;0.70;;;5.60;99.90;;;;;;5129974;28;20045;-68
2023/03/11 10:30:31;;;;;;;0.75;0.75;;;5.60;99.90;;;;;;5113987;28;20322;-70
2023/03/11 10:33:19;;;;;;;0.68;0.68;;;5.60;99.90;;;;;;5113190;28;20224;-67
2023/03/11 10:36:00;;;;;;;1.60;0.70;;;5.50;99.90;;;;;;5113819;28;20043;-67
2023/03/11 10:38:45;;;;;;;0.65;0.65;;;5.50;99.90;;;;;;5098831;28;20200;-69
2023/03/11 10:41:42;;;;;;;0.80;0.80;;;5.60;99.90;;;;;;5112386;28;20327;-68
2023/03/11 10:44:35;;;;;;;0.70;0.70;;;5.50;99.90;;;;;;5131678;28;20052;-70
2023/03/11 10:47:30;;;;;;;0.80;0.77;;;5.60;99.90;;;;;;5126396;28;20049;-70
2023/03/11 10:50:04;;;;;;;1.27;1.17;;;5.70;99.90;;;;;;5112401;28;20541;-68
2023/03/11 10:52:45;;;;;;;;;;;5.10;99.90;;;;;;5128617;28;20046;-66
2023/03/11 10:55:19;;;;;;;1.42;0.80;;;5.10;99.90;;;;;;5116190;28;19924;-70
2023/03/11 10:58:04;;;;;;;0.80;0.80;;;5.10;99.90;;;;;;5129789;28;20057;-70
2023/03/11 11:00:38;;;;;;;0.70;0.70;;;5.10;99.90;;;;;;5110917;28;20037;-69
2023/03/11 11:03:22;;;;;;;0.80;0.80;;;5.10;99.90;;;;;;5112227;28;20542;-70
2023/03/11 11:06:08;;;;;;;0.60;0.60;;;5.10;99.90;;;;;;5081134;29;20244;-68
2023/03/11 11:08:40;;;;;;;0.68;0.68;;;5.20;99.90;;;;;;5127700;28;20361;-68
2023/03/11 11:11:22;;;;;;;0.52;0.52;;;5.20;99.90;;;;;;5131012;28;20035;-70
2023/03/11 11:13:59;;;;;;;0.80;0.80;;;5.20;99.90;;;;;;5114823;28;20228;-70
2023/03/11 11:16:33;;;;;;;0.73;0.65;;;5.20;99.90;;;;;;5109672;28;20035;-71
2023/03/11 11:19:12;;;;;;;1.33;1.00;;;5.10;99.90;;;;;;5096281;28;20389;-66
2023/03/11 11:21:56;;;;;;;0.70;0.70;;;5.30;99.90;;;;;;5097054;28;20170;-72
2023/03/11 11:24:30;;;;;;;1.10;0.80;;;5.10;99.90;;;;;;5111631;28;20051;-70
2023/03/11 11:27:10;;;;;;;0.95;0.95;;;5.30;99.90;;;;;;5095196;28;20325;-69
2023/03/11 11:29:43;;;;;;;0.70;0.70;;;6.30;99.90;;;;;;5129452;28;20227;-67
2023/03/11 11:32:18;;;;;;;0.80;0.80;;;7.10;99.90;;;;;;5094549;28;20308;-69
2023/03/11 11:35:01;;;;;;;0.65;0.60;;;7.90;99.90;;;;;;5116374;28;20030;-69
2023/03/11 11:37:40;;;;;;;0.52;0.52;;;7.00;99.90;;;;;;5099889;28;20033;-68
2023/03/11 11:40:15;;;;;;;0.80;0.70;;;6.50;99.90;;;;;;5100903;28;20351;-69
2023/03/11 11:42:50;;;;;;;0.73;0.73;;;6.00;99.90;;;;;;5134557;28;20339;-66
2023/03/11 11:45:30;;;;;;;0.57;0.57;;;5.90;99.90;;;;;;5131801;28;20035;-67
2023/03/11 11:48:22;;;;;;;0.82;0.82;;;5.80;99.90;;;;;;5117098;28;20047;-68
2023/03/11 11:51:14;;;;;;;1.00;1.00;;;5.90;99.90;;;;;;5118997;28;20053;-70
2023/03/11 11:54:24;;;;;;;0.77;0.77;;;6.60;99.90;;;;;;5088487;28;20283;-67
2023/03/11 11:56:56;;;;;;;0.93;0.90;;;7.40;99.90;;;;;;5117206;28;20030;-68
2023/03/11 11:59:29;;;;;;;0.57;0.57;;;7.20;99.90;;;;;;5100823;28;20348;-66
2023/03/11 12:02:38;;;;;;;0.57;0.57;;;6.90;99.90;;;;;;5084875;28;20046;-70
2023/03/11 12:05:28;;;;;;;0.77;0.43;;;6.70;99.90;;;;;;5109106;28;20050;-69
2023/03/11 12:08:24;;;;;;;0.60;0.60;;;6.40;99.90;;;;;;5119229;28;20035;-71
2023/03/11 12:11:23;;;;;;;;;;;6.30;99.90;;;;;;5118261;28;20034;-69
2023/03/11 12:14:15;;;;;;;0.55;0.50;;;6.10;99.90;;;;;;5104949;28;19910;-69
2023/03/11 12:16:59;;;;;;;0.57;0.57;;;5.80;99.90;;;;;;5117541;28;20297;-64
2023/03/11 12:19:47;;;;;;;0.50;0.50;;;5.60;99.90;;;;;;5101222;28;20030;-69
2023/03/11 12:22:43;;;;;;;0.65;0.60;;;5.60;99.90;;;;;;5134172;28;20043;-70
2023/03/11 12:25:47;;;;;;;0.68;0.68;;;5.70;99.90;;;;;;5132787;28;20042;-69
2023/03/11 12:28:52;;;;;;;0.70;0.70;;;5.80;99.90;;;;;;5116976;28;20031;-67
2023/03/11 12:31:30;;;;;;;0.50;0.50;;;5.60;99.90;;;;;;5147712;28;20041;-69
2023/03/11 12:34:06;;;;;;;0.60;0.60;;;5.60;99.90;;;;;;5133890;28;20039;-68
2023/03/11 12:36:46;;;;;;;1.25;0.80;;;5.70;99.90;;;;;;5099273;28;20345;-68
2023/03/11 12:39:30;;;;;;;0.60;0.60;;;5.60;99.90;;;;;;5100962;28;20043;-70
2023/03/11 12:42:26;;;;;;;1.05;1.00;;;5.60;99.90;;;;;;5082537;28;20027;-69
2023/03/11 12:45:46;;;;;;;0.80;0.80;;;5.60;99.90;;;;;;5099805;28;20772;-67
2023/03/11 12:48:38;;;;;;;0.75;0.75;;;5.40;99.90;;;;;;5115766;28;20043;-68
2023/03/11 12:51:33;;;;;;;0.80;0.80;;;5.30;99.90;;;;;;5115475;28;20034;-70
2023/03/11 12:54:33;;;;;;;0.75;0.75;;;5.40;99.90;;;;;;5130026;28;20637;-70
2023/03/11 12:57:17;;;;;;;1.17;0.70;;;5.40;99.90;;;;;;5127954;28;20389;-69
2023/03/11 13:00:31;;;;;;;1.15;0.98;;;5.60;99.90;;;;;;5127615;28;20608;-67
2023/03/11 13:03:13;;;;;;;0.70;0.70;;;5.60;99.90;;;;;;5131174;28;20031;-71
2023/03/11 13:06:03;;;;;;;0.77;0.70;;;5.90;99.90;;;;;;5103684;28;20051;-70
2023/03/11 13:08:47;;;;;;;1.10;0.70;;;6.00;99.90;;;;;;5100319;28;20042;-69
2023/03/11 13:11:40;;;;;;;0.70;0.70;;;5.80;99.90;;;;;;5112567;28;20039;-71
2023/03/11 13:14:35;;;;;;;0.88;0.70;;;5.80;99.90;;;;;;5099439;28;20049;-70
2023/03/11 13:17:29;;;;;;;2.15;0.85;;;5.70;99.90;;;;;;5128468;28;20038;-70
2023/03/11 13:20:01;;;;;;;1.08;0.70;;;5.60;99.90;;;;;;5131320;28;20061;-70
2023/03/11 13:22:51;;;;;;;0.88;0.80;;;5.60;99.90;;;;;;5113551;28;20035;-70
2023/03/11 13:25:38;;;;;;;1.48;1.10;;;5.70;99.90;;;;;;5131141;28;20031;-67
2023/03/11 13:28:31;;;;;;;1.20;1.10;;;5.60;99.90;;;;;;5129688;28;20038;-69
2023/03/11 13:31:34;;;;;;;0.80;0.80;;;5.60;99.90;;;;;;5128424;28;20047;-70
2023/03/11 13:35:19;;;;;;;0.77;0.77;;;5.40;99.90;;;;;;5132353;28;20045;-68
2023/03/11 13:38:27;;;;;;;0.80;0.80;;;5.20;99.90;;;;;;5050132;29;20047;-69
2023/03/11 13:41:11;;;;;;;2.05;1.05;;;5.10;99.90;;;;;;5050671;29;20348;-66
2023/03/11 13:43:48;;;;;;;0.80;0.80;;;5.00;99.90;;;;;;5025476;29;20109;-70
2023/03/11 13:46:37;;;;;;;1.02;0.80;;;5.10;99.90;;;;;;5032172;29;20048;-69
2023/03/11 13:49:39;;;;;;;0.60;0.60;;;5.10;99.90;;;;;;5019398;29;20473;-67
2023/03/11 13:52:21;;;;;;;0.88;0.77;;;5.10;99.90;;;;;;5048445;29;20067;-68
2023/03/11 13:55:05;;;;;;;0.70;0.70;;;5.20;99.90;;;;;;5034423;29;20695;-70
2023/03/11 13:57:37;;;;;;;0.90;0.90;;;5.30;99.90;;;;;;5047991;29;20028;-69
2023/03/11 14:00:27;;;;;;;0.70;0.70;;;5.40;99.90;;;;;;5033440;29;20033;-68
2023/03/11 14:03:02;;;;;;;1.40;1.00;;;5.40;99.90;;;;;;5018491;29;20044;-70